sensor_id;sensor_type;location;lat;lon;timestamp;P1;durP1;ratioP1;P2;durP2;ratioP2
15555;SDS011;7879;48.660;9.116;2023-03-29T00:02:03;0.30;;;0.30;;
15555;SDS011;7879;48.660;9.116;2023-03-29T00:04:32;0.30;;;0.30;;
15555;SDS011;7879;48.660;9.116;2023-03-29T00:06:59;0.30;;;0.30;;
15555;SDS011;7879;48.660;9.116;2023-03-29T00:09:30;0.30;;;0.30;;
15555;SDS011;7879;48.660;9.116;2023-03-29T00:11:59;0.30;;;0.30;;
15555;SDS011;7879;48.660;9.116;2023-03-29T00:14:26;0.20;;;0.20;;
15555;SDS011;7879;48.660;9.116;2023-03-29T00:16:56;0.20;;;0.20;;
15555;SDS011;7879;48.660;9.116;2023-03-29T00:19:23;0.30;;;0.30;;
15555;SDS011;7879;48.660;9.116;2023-03-29T00:21:50;0.30;;;0.30;;
15555;SDS011;7879;48.660;9.116;2023-03-29T00:24:17;0.30;;;0.30;;
15555;SDS011;7879;48.660;9.116;2023-03-29T00:26:46;0.30;;;0.30;;
15555;SDS011;7879;48.660;9.116;2023-03-29T00:29:12;0.30;;;0.30;;
15555;SDS011;7879;48.660;9.116;2023-03-29T00:31:39;0.20;;;0.20;;
15555;SDS011;7879;48.660;9.116;2023-03-29T00:34:06;0.20;;;0.20;;
15555;SDS011;7879;48.660;9.116;2023-03-29T00:36:33;0.20;;;0.20;;
15555;SDS011;7879;48.660;9.116;2023-03-29T00:38:59;0.20;;;0.20;;
15555;SDS011;7879;48.660;9.116;2023-03-29T00:41:26;0.30;;;0.30;;
15555;SDS011;7879;48.660;9.116;2023-03-29T00:43:55;0.30;;;0.30;;
15555;SDS011;7879;48.660;9.116;2023-03-29T00:46:27;0.30;;;0.30;;
15555;SDS011;7879;48.660;9.116;2023-03-29T00:48:57;0.30;;;0.30;;
15555;SDS011;7879;48.660;9.116;2023-03-29T00:51:28;0.20;;;0.20;;
15555;SDS011;7879;48.660;9.116;2023-03-29T00:53:58;0.20;;;0.20;;
15555;SDS011;7879;48.660;9.116;2023-03-29T00:56:30;0.30;;;0.30;;
15555;SDS011;7879;48.660;9.116;2023-03-29T00:59:06;0.30;;;0.30;;
15555;SDS011;7879;48.660;9.116;2023-03-29T01:01:41;0.30;;;0.30;;
15555;SDS011;7879;48.660;9.116;2023-03-29T01:04:22;0.20;;;0.20;;
15555;SDS011;7879;48.660;9.116;2023-03-29T01:06:56;0.20;;;0.20;;
15555;SDS011;7879;48.660;9.116;2023-03-29T01:09:32;0.30;;;0.30;;
15555;SDS011;7879;48.660;9.116;2023-03-29T01:12:05;0.30;;;0.30;;
15555;SDS011;7879;48.660;9.116;2023-03-29T01:14:38;0.30;;;0.30;;
15555;SDS011;7879;48.660;9.116;2023-03-29T01:17:11;0.25;;;0.25;;
15555;SDS011;7879;48.660;9.116;2023-03-29T01:19:39;0.20;;;0.20;;
15555;SDS011;7879;48.660;9.116;2023-03-29T01:22:27;0.30;;;0.30;;
15555;SDS011;7879;48.660;9.116;2023-03-29T01:25:12;0.30;;;0.30;;
15555;SDS011;7879;48.660;9.116;2023-03-29T01:30:53;0.20;;;0.20;;
15555;SDS011;7879;48.660;9.116;2023-03-29T01:33:30;0.30;;;0.30;;
15555;SDS011;7879;48.660;9.116;2023-03-29T01:38:49;0.20;;;0.20;;
15555;SDS011;7879;48.660;9.116;2023-03-29T01:41:20;0.20;;;0.20;;
15555;SDS011;7879;48.660;9.116;2023-03-29T01:43:55;0.30;;;0.30;;
15555;SDS011;7879;48.660;9.116;2023-03-29T01:46:34;0.30;;;0.30;;
15555;SDS011;7879;48.660;9.116;2023-03-29T01:49:20;0.30;;;0.30;;
15555;SDS011;7879;48.660;9.116;2023-03-29T01:52:14;0.20;;;0.20;;
15555;SDS011;7879;48.660;9.116;2023-03-29T01:54:48;0.30;;;0.30;;
15555;SDS011;7879;48.660;9.116;2023-03-29T01:57:25;0.30;;;0.30;;
15555;SDS011;7879;48.660;9.116;2023-03-29T01:59:52;0.23;;;0.23;;
15555;SDS011;7879;48.660;9.116;2023-03-29T02:02:22;0.20;;;0.20;;
15555;SDS011;7879;48.660;9.116;2023-03-29T02:04:52;0.30;;;0.30;;
15555;SDS011;7879;48.660;9.116;2023-03-29T02:07:22;0.30;;;0.30;;
15555;SDS011;7879;48.660;9.116;2023-03-29T02:09:52;0.30;;;0.30;;
15555;SDS011;7879;48.660;9.116;2023-03-29T02:12:19;0.30;;;0.30;;
15555;SDS011;7879;48.660;9.116;2023-03-29T02:14:46;0.20;;;0.20;;
15555;SDS011;7879;48.660;9.116;2023-03-29T02:17:20;0.20;;;0.20;;
15555;SDS011;7879;48.660;9.116;2023-03-29T02:19:51;0.30;;;0.30;;
15555;SDS011;7879;48.660;9.116;2023-03-29T02:22:24;0.30;;;0.30;;
15555;SDS011;7879;48.660;9.116;2023-03-29T02:24:59;0.20;;;0.20;;
15555;SDS011;7879;48.660;9.116;2023-03-29T02:27:28;0.20;;;0.20;;
15555;SDS011;7879;48.660;9.116;2023-03-29T02:29:55;0.20;;;0.20;;
15555;SDS011;7879;48.660;9.116;2023-03-29T02:32:33;0.30;;;0.30;;
15555;SDS011;7879;48.660;9.116;2023-03-29T02:35:08;0.30;;;0.30;;
15555;SDS011;7879;48.660;9.116;2023-03-29T02:37:40;0.20;;;0.20;;
15555;SDS011;7879;48.660;9.116;2023-03-29T02:40:10;0.20;;;0.20;;
15555;SDS011;7879;48.660;9.116;2023-03-29T02:42:39;0.28;;;0.28;;
15555;SDS011;7879;48.660;9.116;2023-03-29T02:45:08;0.30;;;0.30;;
15555;SDS011;7879;48.660;9.116;2023-03-29T02:47:43;0.20;;;0.20;;
15555;SDS011;7879;48.660;9.116;2023-03-29T02:50:15;0.20;;;0.20;;
15555;SDS011;7879;48.660;9.116;2023-03-29T02:52:43;0.20;;;0.20;;
15555;SDS011;7879;48.660;9.116;2023-03-29T02:55:18;0.30;;;0.30;;
15555;SDS011;7879;48.660;9.116;2023-03-29T02:57:48;0.30;;;0.30;;
15555;SDS011;7879;48.660;9.116;2023-03-29T03:00:15;0.20;;;0.20;;
15555;SDS011;7879;48.660;9.116;2023-03-29T03:02:44;0.20;;;0.20;;
15555;SDS011;7879;48.660;9.116;2023-03-29T03:05:12;0.20;;;0.20;;
15555;SDS011;7879;48.660;9.116;2023-03-29T03:07:38;0.30;;;0.30;;
15555;SDS011;7879;48.660;9.116;2023-03-29T03:10:06;0.30;;;0.30;;
15555;SDS011;7879;48.660;9.116;2023-03-29T03:12:35;0.30;;;0.30;;
15555;SDS011;7879;48.660;9.116;2023-03-29T03:15:03;0.20;;;0.20;;
15555;SDS011;7879;48.660;9.116;2023-03-29T03:17:31;0.20;;;0.20;;
15555;SDS011;7879;48.660;9.116;2023-03-29T03:19:58;0.30;;;0.30;;
15555;SDS011;7879;48.660;9.116;2023-03-29T03:22:25;0.30;;;0.30;;
15555;SDS011;7879;48.660;9.116;2023-03-29T03:24:52;0.30;;;0.30;;
15555;SDS011;7879;48.660;9.116;2023-03-29T03:27:19;0.30;;;0.30;;
15555;SDS011;7879;48.660;9.116;2023-03-29T03:29:46;0.20;;;0.20;;
15555;SDS011;7879;48.660;9.116;2023-03-29T03:32:13;0.20;;;0.20;;
15555;SDS011;7879;48.660;9.116;2023-03-29T03:34:41;0.25;;;0.25;;
15555;SDS011;7879;48.660;9.116;2023-03-29T03:37:08;0.30;;;0.30;;
15555;SDS011;7879;48.660;9.116;2023-03-29T03:39:37;0.20;;;0.20;;
15555;SDS011;7879;48.660;9.116;2023-03-29T03:42:04;0.20;;;0.20;;
15555;SDS011;7879;48.660;9.116;2023-03-29T03:44:34;0.30;;;0.30;;
15555;SDS011;7879;48.660;9.116;2023-03-29T03:47:01;0.30;;;0.30;;
15555;SDS011;7879;48.660;9.116;2023-03-29T03:49:29;0.20;;;0.20;;
15555;SDS011;7879;48.660;9.116;2023-03-29T03:51:58;0.20;;;0.20;;
15555;SDS011;7879;48.660;9.116;2023-03-29T03:54:26;0.25;;;0.25;;
15555;SDS011;7879;48.660;9.116;2023-03-29T03:56:52;0.30;;;0.30;;
15555;SDS011;7879;48.660;9.116;2023-03-29T03:59:19;0.30;;;0.30;;
15555;SDS011;7879;48.660;9.116;2023-03-29T04:01:47;0.30;;;0.30;;
15555;SDS011;7879;48.660;9.116;2023-03-29T04:04:15;0.20;;;0.20;;
15555;SDS011;7879;48.660;9.116;2023-03-29T04:06:42;0.20;;;0.20;;
15555;SDS011;7879;48.660;9.116;2023-03-29T04:09:09;0.30;;;0.30;;
15555;SDS011;7879;48.660;9.116;2023-03-29T04:11:36;0.30;;;0.30;;
15555;SDS011;7879;48.660;9.116;2023-03-29T04:14:03;0.28;;;0.28;;
15555;SDS011;7879;48.660;9.116;2023-03-29T04:16:30;0.20;;;0.20;;
15555;SDS011;7879;48.660;9.116;2023-03-29T04:18:57;0.20;;;0.20;;
15555;SDS011;7879;48.660;9.116;2023-03-29T04:21:24;0.30;;;0.30;;
15555;SDS011;7879;48.660;9.116;2023-03-29T04:23:51;0.30;;;0.30;;
15555;SDS011;7879;48.660;9.116;2023-03-29T04:26:18;0.20;;;0.20;;
15555;SDS011;7879;48.660;9.116;2023-03-29T04:28:45;0.20;;;0.20;;
15555;SDS011;7879;48.660;9.116;2023-03-29T04:31:13;0.20;;;0.20;;
15555;SDS011;7879;48.660;9.116;2023-03-29T04:33:40;0.30;;;0.30;;
15555;SDS011;7879;48.660;9.116;2023-03-29T04:36:07;0.30;;;0.30;;
15555;SDS011;7879;48.660;9.116;2023-03-29T04:38:34;0.20;;;0.20;;
15555;SDS011;7879;48.660;9.116;2023-03-29T04:41:02;0.20;;;0.20;;
15555;SDS011;7879;48.660;9.116;2023-03-29T04:43:30;0.20;;;0.20;;
15555;SDS011;7879;48.660;9.116;2023-03-29T04:45:57;0.30;;;0.30;;
15555;SDS011;7879;48.660;9.116;2023-03-29T04:48:23;0.25;;;0.25;;
15555;SDS011;7879;48.660;9.116;2023-03-29T04:50:51;0.20;;;0.20;;
15555;SDS011;7879;48.660;9.116;2023-03-29T04:53:19;0.20;;;0.20;;
15555;SDS011;7879;48.660;9.116;2023-03-29T04:55:47;0.30;;;0.30;;
15555;SDS011;7879;48.660;9.116;2023-03-29T04:58:14;0.30;;;0.30;;
15555;SDS011;7879;48.660;9.116;2023-03-29T05:00:42;0.20;;;0.20;;
15555;SDS011;7879;48.660;9.116;2023-03-29T05:03:09;0.20;;;0.20;;
15555;SDS011;7879;48.660;9.116;2023-03-29T05:05:40;0.30;;;0.30;;
15555;SDS011;7879;48.660;9.116;2023-03-29T05:08:06;0.20;;;0.20;;
15555;SDS011;7879;48.660;9.116;2023-03-29T05:10:35;0.20;;;0.20;;
15555;SDS011;7879;48.660;9.116;2023-03-29T05:13:02;0.30;;;0.30;;
15555;SDS011;7879;48.660;9.116;2023-03-29T05:15:29;0.30;;;0.30;;
15555;SDS011;7879;48.660;9.116;2023-03-29T05:17:57;0.20;;;0.20;;
15555;SDS011;7879;48.660;9.116;2023-03-29T05:20:24;0.20;;;0.20;;
15555;SDS011;7879;48.660;9.116;2023-03-29T05:22:51;0.30;;;0.30;;
15555;SDS011;7879;48.660;9.116;2023-03-29T05:25:18;0.20;;;0.20;;
15555;SDS011;7879;48.660;9.116;2023-03-29T05:27:45;0.20;;;0.20;;
15555;SDS011;7879;48.660;9.116;2023-03-29T05:30:13;0.30;;;0.30;;
15555;SDS011;7879;48.660;9.116;2023-03-29T05:32:40;0.20;;;0.20;;
15555;SDS011;7879;48.660;9.116;2023-03-29T05:35:08;0.20;;;0.20;;
15555;SDS011;7879;48.660;9.116;2023-03-29T05:37:35;0.28;;;0.28;;
15555;SDS011;7879;48.660;9.116;2023-03-29T05:40:02;0.30;;;0.30;;
15555;SDS011;7879;48.660;9.116;2023-03-29T05:42:32;0.20;;;0.20;;
15555;SDS011;7879;48.660;9.116;2023-03-29T05:44:59;0.30;;;0.30;;
15555;SDS011;7879;48.660;9.116;2023-03-29T05:47:26;0.20;;;0.20;;
15555;SDS011;7879;48.660;9.116;2023-03-29T05:49:53;0.10;;;0.10;;
15555;SDS011;7879;48.660;9.116;2023-03-29T05:52:20;0.22;;;0.22;;
15555;SDS011;7879;48.660;9.116;2023-03-29T05:54:47;0.22;;;0.22;;
15555;SDS011;7879;48.660;9.116;2023-03-29T05:57:14;0.20;;;0.20;;
15555;SDS011;7879;48.660;9.116;2023-03-29T05:59:41;0.25;;;0.25;;
15555;SDS011;7879;48.660;9.116;2023-03-29T06:02:08;0.20;;;0.20;;
15555;SDS011;7879;48.660;9.116;2023-03-29T06:04:36;0.20;;;0.20;;
15555;SDS011;7879;48.660;9.116;2023-03-29T06:07:03;0.25;;;0.25;;
15555;SDS011;7879;48.660;9.116;2023-03-29T06:09:30;0.20;;;0.20;;
15555;SDS011;7879;48.660;9.116;2023-03-29T06:11:58;0.20;;;0.20;;
15555;SDS011;7879;48.660;9.116;2023-03-29T06:14:26;0.30;;;0.30;;
15555;SDS011;7879;48.660;9.116;2023-03-29T06:16:54;0.20;;;0.20;;
15555;SDS011;7879;48.660;9.116;2023-03-29T06:19:21;0.20;;;0.20;;
15555;SDS011;7879;48.660;9.116;2023-03-29T06:21:48;0.25;;;0.25;;
15555;SDS011;7879;48.660;9.116;2023-03-29T06:24:18;0.20;;;0.20;;
15555;SDS011;7879;48.660;9.116;2023-03-29T06:26:45;0.20;;;0.20;;
15555;SDS011;7879;48.660;9.116;2023-03-29T06:29:12;0.30;;;0.30;;
15555;SDS011;7879;48.660;9.116;2023-03-29T06:31:39;0.20;;;0.20;;
15555;SDS011;7879;48.660;9.116;2023-03-29T06:34:07;0.30;;;0.30;;
15555;SDS011;7879;48.660;9.116;2023-03-29T06:36:34;0.20;;;0.20;;
15555;SDS011;7879;48.660;9.116;2023-03-29T06:39:00;0.20;;;0.20;;
15555;SDS011;7879;48.660;9.116;2023-03-29T06:41:33;0.30;;;0.30;;
15555;SDS011;7879;48.660;9.116;2023-03-29T06:44:00;0.10;;;0.10;;
15555;SDS011;7879;48.660;9.116;2023-03-29T06:46:29;0.20;;;0.20;;
15555;SDS011;7879;48.660;9.116;2023-03-29T06:48:56;0.20;;;0.20;;
15555;SDS011;7879;48.660;9.116;2023-03-29T06:51:22;0.30;;;0.30;;
15555;SDS011;7879;48.660;9.116;2023-03-29T06:53:49;0.20;;;0.20;;
15555;SDS011;7879;48.660;9.116;2023-03-29T06:56:16;0.20;;;0.20;;
15555;SDS011;7879;48.660;9.116;2023-03-29T06:58:43;0.10;;;0.10;;
15555;SDS011;7879;48.660;9.116;2023-03-29T07:01:10;0.20;;;0.20;;
15555;SDS011;7879;48.660;9.116;2023-03-29T07:03:36;0.10;;;0.10;;
15555;SDS011;7879;48.660;9.116;2023-03-29T07:06:04;0.20;;;0.20;;
15555;SDS011;7879;48.660;9.116;2023-03-29T07:08:35;0.10;;;0.10;;
15555;SDS011;7879;48.660;9.116;2023-03-29T07:11:09;0.20;;;0.20;;
15555;SDS011;7879;48.660;9.116;2023-03-29T07:13:38;0.20;;;0.20;;
15555;SDS011;7879;48.660;9.116;2023-03-29T07:16:08;0.20;;;0.20;;
15555;SDS011;7879;48.660;9.116;2023-03-29T07:18:39;0.20;;;0.20;;
15555;SDS011;7879;48.660;9.116;2023-03-29T07:21:08;0.10;;;0.10;;
15555;SDS011;7879;48.660;9.116;2023-03-29T07:23:36;0.20;;;0.20;;
15555;SDS011;7879;48.660;9.116;2023-03-29T07:26:04;0.20;;;0.20;;
15555;SDS011;7879;48.660;9.116;2023-03-29T07:28:33;0.10;;;0.10;;
15555;SDS011;7879;48.660;9.116;2023-03-29T07:31:03;0.25;;;0.25;;
15555;SDS011;7879;48.660;9.116;2023-03-29T07:33:36;0.20;;;0.20;;
15555;SDS011;7879;48.660;9.116;2023-03-29T07:36:04;0.13;;;0.13;;
15555;SDS011;7879;48.660;9.116;2023-03-29T07:38:32;0.20;;;0.20;;
15555;SDS011;7879;48.660;9.116;2023-03-29T07:41:01;0.15;;;0.15;;
15555;SDS011;7879;48.660;9.116;2023-03-29T07:43:29;0.10;;;0.10;;
15555;SDS011;7879;48.660;9.116;2023-03-29T07:46:00;0.20;;;0.20;;
15555;SDS011;7879;48.660;9.116;2023-03-29T07:48:28;0.20;;;0.20;;
15555;SDS011;7879;48.660;9.116;2023-03-29T07:50:55;0.10;;;0.10;;
15555;SDS011;7879;48.660;9.116;2023-03-29T07:53:22;0.13;;;0.13;;
15555;SDS011;7879;48.660;9.116;2023-03-29T07:55:49;0.20;;;0.20;;
15555;SDS011;7879;48.660;9.116;2023-03-29T07:58:19;0.10;;;0.10;;
15555;SDS011;7879;48.660;9.116;2023-03-29T08:00:47;0.10;;;0.10;;
15555;SDS011;7879;48.660;9.116;2023-03-29T08:03:14;0.10;;;0.10;;
15555;SDS011;7879;48.660;9.116;2023-03-29T08:05:41;0.20;;;0.20;;
15555;SDS011;7879;48.660;9.116;2023-03-29T08:08:08;0.10;;;0.10;;
15555;SDS011;7879;48.660;9.116;2023-03-29T08:10:36;0.10;;;0.10;;
15555;SDS011;7879;48.660;9.116;2023-03-29T08:13:05;0.20;;;0.20;;
15555;SDS011;7879;48.660;9.116;2023-03-29T08:15:33;0.20;;;0.20;;
15555;SDS011;7879;48.660;9.116;2023-03-29T08:18:02;0.10;;;0.10;;
15555;SDS011;7879;48.660;9.116;2023-03-29T08:20:30;0.10;;;0.10;;
15555;SDS011;7879;48.660;9.116;2023-03-29T08:22:57;0.10;;;0.10;;
15555;SDS011;7879;48.660;9.116;2023-03-29T08:25:24;0.20;;;0.20;;
15555;SDS011;7879;48.660;9.116;2023-03-29T08:27:52;0.13;;;0.13;;
15555;SDS011;7879;48.660;9.116;2023-03-29T08:30:19;0.10;;;0.10;;
15555;SDS011;7879;48.660;9.116;2023-03-29T08:32:46;0.10;;;0.10;;
15555;SDS011;7879;48.660;9.116;2023-03-29T08:35:17;0.20;;;0.20;;
15555;SDS011;7879;48.660;9.116;2023-03-29T08:37:44;0.10;;;0.10;;
15555;SDS011;7879;48.660;9.116;2023-03-29T08:40:15;0.10;;;0.10;;
15555;SDS011;7879;48.660;9.116;2023-03-29T08:50:43;0.10;;;0.10;;
15555;SDS011;7879;48.660;9.116;2023-03-29T08:55:56;0.10;;;0.10;;
15555;SDS011;7879;48.660;9.116;2023-03-29T08:58:25;0.10;;;0.10;;
15555;SDS011;7879;48.660;9.116;2023-03-29T09:00:57;0.10;;;0.10;;
15555;SDS011;7879;48.660;9.116;2023-03-29T09:03:30;0.10;;;0.10;;
15555;SDS011;7879;48.660;9.116;2023-03-29T09:06:06;0.10;;;0.10;;
15555;SDS011;7879;48.660;9.116;2023-03-29T09:08:38;0.10;;;0.10;;
15555;SDS011;7879;48.660;9.116;2023-03-29T09:16:39;0.10;;;0.10;;
15555;SDS011;7879;48.660;9.116;2023-03-29T09:19:32;0.10;;;0.10;;
15555;SDS011;7879;48.660;9.116;2023-03-29T09:27:17;0.10;;;0.10;;
15555;SDS011;7879;48.660;9.116;2023-03-29T09:32:43;0.10;;;0.10;;
15555;SDS011;7879;48.660;9.116;2023-03-29T09:35:24;0.20;;;0.20;;
15555;SDS011;7879;48.660;9.116;2023-03-29T09:37:57;0.10;;;0.10;;
15555;SDS011;7879;48.660;9.116;2023-03-29T09:40:30;0.10;;;0.10;;
15555;SDS011;7879;48.660;9.116;2023-03-29T09:43:10;0.10;;;0.10;;
15555;SDS011;7879;48.660;9.116;2023-03-29T09:45:41;0.10;;;0.10;;
15555;SDS011;7879;48.660;9.116;2023-03-29T09:48:10;0.10;;;0.10;;
15555;SDS011;7879;48.660;9.116;2023-03-29T09:50:40;0.10;;;0.10;;
15555;SDS011;7879;48.660;9.116;2023-03-29T09:53:08;0.10;;;0.10;;
15555;SDS011;7879;48.660;9.116;2023-03-29T09:55:35;0.10;;;0.10;;
15555;SDS011;7879;48.660;9.116;2023-03-29T09:58:12;0.10;;;0.10;;
15555;SDS011;7879;48.660;9.116;2023-03-29T10:00:44;0.10;;;0.10;;
15555;SDS011;7879;48.660;9.116;2023-03-29T10:03:26;0.10;;;0.10;;
15555;SDS011;7879;48.660;9.116;2023-03-29T10:05:55;0.10;;;0.10;;
15555;SDS011;7879;48.660;9.116;2023-03-29T10:08:26;0.10;;;0.10;;
15555;SDS011;7879;48.660;9.116;2023-03-29T10:10:57;0.10;;;0.10;;
15555;SDS011;7879;48.660;9.116;2023-03-29T10:13:30;0.10;;;0.10;;
15555;SDS011;7879;48.660;9.116;2023-03-29T10:16:02;0.10;;;0.10;;
15555;SDS011;7879;48.660;9.116;2023-03-29T10:18:31;0.10;;;0.10;;
15555;SDS011;7879;48.660;9.116;2023-03-29T10:21:04;0.10;;;0.10;;
15555;SDS011;7879;48.660;9.116;2023-03-29T10:23:35;0.10;;;0.10;;
15555;SDS011;7879;48.660;9.116;2023-03-29T10:26:03;0.10;;;0.10;;
15555;SDS011;7879;48.660;9.116;2023-03-29T10:28:34;0.10;;;0.10;;
15555;SDS011;7879;48.660;9.116;2023-03-29T10:31:03;0.10;;;0.10;;
15555;SDS011;7879;48.660;9.116;2023-03-29T10:33:33;0.10;;;0.10;;
15555;SDS011;7879;48.660;9.116;2023-03-29T10:36:02;0.00;;;0.00;;
15555;SDS011;7879;48.660;9.116;2023-03-29T10:38:32;0.00;;;0.00;;
15555;SDS011;7879;48.660;9.116;2023-03-29T10:41:03;0.00;;;0.00;;
15555;SDS011;7879;48.660;9.116;2023-03-29T10:43:35;0.00;;;0.00;;
15555;SDS011;7879;48.660;9.116;2023-03-29T10:46:05;0.00;;;0.00;;
15555;SDS011;7879;48.660;9.116;2023-03-29T10:48:38;0.00;;;0.00;;
15555;SDS011;7879;48.660;9.116;2023-03-29T10:51:11;0.00;;;0.00;;
15555;SDS011;7879;48.660;9.116;2023-03-29T10:53:40;0.00;;;0.00;;
15555;SDS011;7879;48.660;9.116;2023-03-29T11:07:55;0.00;;;0.00;;
15555;SDS011;7879;48.660;9.116;2023-03-29T11:19:44;0.10;;;0.10;;
15555;SDS011;7879;48.660;9.116;2023-03-29T11:24:56;0.00;;;0.00;;
15555;SDS011;7879;48.660;9.116;2023-03-29T11:30:29;0.00;;;0.00;;
15555;SDS011;7879;48.660;9.116;2023-03-29T11:36:16;0.00;;;0.00;;
15555;SDS011;7879;48.660;9.116;2023-03-29T11:42:05;0.00;;;0.00;;
15555;SDS011;7879;48.660;9.116;2023-03-29T11:44:37;0.00;;;0.00;;
15555;SDS011;7879;48.660;9.116;2023-03-29T11:47:13;0.10;;;0.10;;
15555;SDS011;7879;48.660;9.116;2023-03-29T11:49:51;0.05;;;0.05;;
15555;SDS011;7879;48.660;9.116;2023-03-29T11:58:10;0.00;;;0.00;;
15555;SDS011;7879;48.660;9.116;2023-03-29T12:00:43;0.10;;;0.10;;
15555;SDS011;7879;48.660;9.116;2023-03-29T12:06:35;0.10;;;0.10;;
15555;SDS011;7879;48.660;9.116;2023-03-29T12:09:11;0.10;;;0.10;;
15555;SDS011;7879;48.660;9.116;2023-03-29T12:11:56;0.10;;;0.10;;
15555;SDS011;7879;48.660;9.116;2023-03-29T12:14:38;0.10;;;0.10;;
15555;SDS011;7879;48.660;9.116;2023-03-29T12:20:30;0.10;;;0.10;;
15555;SDS011;7879;48.660;9.116;2023-03-29T12:23:00;0.10;;;0.10;;
15555;SDS011;7879;48.660;9.116;2023-03-29T12:25:29;0.10;;;0.10;;
15555;SDS011;7879;48.660;9.116;2023-03-29T12:38:49;0.10;;;0.10;;
15555;SDS011;7879;48.660;9.116;2023-03-29T12:41:18;0.10;;;0.10;;
15555;SDS011;7879;48.660;9.116;2023-03-29T12:46:24;0.10;;;0.10;;
15555;SDS011;7879;48.660;9.116;2023-03-29T12:48:53;0.10;;;0.10;;
15555;SDS011;7879;48.660;9.116;2023-03-29T12:51:27;0.10;;;0.10;;
15555;SDS011;7879;48.660;9.116;2023-03-29T12:54:03;0.10;;;0.10;;
15555;SDS011;7879;48.660;9.116;2023-03-29T12:57:17;0.10;;;0.10;;
15555;SDS011;7879;48.660;9.116;2023-03-29T12:59:45;0.10;;;0.10;;
15555;SDS011;7879;48.660;9.116;2023-03-29T13:09:57;0.10;;;0.10;;
15555;SDS011;7879;48.660;9.116;2023-03-29T13:12:29;0.10;;;0.10;;
15555;SDS011;7879;48.660;9.116;2023-03-29T13:17:57;0.10;;;0.10;;
15555;SDS011;7879;48.660;9.116;2023-03-29T13:23:18;0.10;;;0.10;;
15555;SDS011;7879;48.660;9.116;2023-03-29T13:29:15;0.10;;;0.10;;
15555;SDS011;7879;48.660;9.116;2023-03-29T13:34:34;0.10;;;0.10;;
15555;SDS011;7879;48.660;9.116;2023-03-29T13:39:51;0.10;;;0.10;;
15555;SDS011;7879;48.660;9.116;2023-03-29T13:42:24;0.10;;;0.10;;
15555;SDS011;7879;48.660;9.116;2023-03-29T13:47:43;0.10;;;0.10;;
15555;SDS011;7879;48.660;9.116;2023-03-29T13:55:41;0.10;;;0.10;;
15555;SDS011;7879;48.660;9.116;2023-03-29T13:58:14;0.10;;;0.10;;
15555;SDS011;7879;48.660;9.116;2023-03-29T14:03:54;0.10;;;0.10;;
15555;SDS011;7879;48.660;9.116;2023-03-29T14:06:31;0.10;;;0.10;;
15555;SDS011;7879;48.660;9.116;2023-03-29T14:09:01;0.10;;;0.10;;
15555;SDS011;7879;48.660;9.116;2023-03-29T14:11:31;0.10;;;0.10;;
15555;SDS011;7879;48.660;9.116;2023-03-29T14:13:59;0.10;;;0.10;;
15555;SDS011;7879;48.660;9.116;2023-03-29T14:16:30;0.10;;;0.10;;
15555;SDS011;7879;48.660;9.116;2023-03-29T14:19:04;0.10;;;0.10;;
15555;SDS011;7879;48.660;9.116;2023-03-29T14:21:42;0.10;;;0.10;;
15555;SDS011;7879;48.660;9.116;2023-03-29T14:24:17;0.10;;;0.10;;
15555;SDS011;7879;48.660;9.116;2023-03-29T14:26:47;0.10;;;0.10;;
15555;SDS011;7879;48.660;9.116;2023-03-29T14:29:14;0.10;;;0.10;;
15555;SDS011;7879;48.660;9.116;2023-03-29T14:31:43;0.00;;;0.00;;
15555;SDS011;7879;48.660;9.116;2023-03-29T14:34:11;0.10;;;0.10;;
15555;SDS011;7879;48.660;9.116;2023-03-29T14:36:42;0.10;;;0.10;;
15555;SDS011;7879;48.660;9.116;2023-03-29T14:39:15;0.10;;;0.10;;
15555;SDS011;7879;48.660;9.116;2023-03-29T14:41:50;0.10;;;0.10;;
15555;SDS011;7879;48.660;9.116;2023-03-29T14:44:18;0.10;;;0.10;;
15555;SDS011;7879;48.660;9.116;2023-03-29T14:46:48;0.10;;;0.10;;
15555;SDS011;7879;48.660;9.116;2023-03-29T14:49:15;0.10;;;0.10;;
15555;SDS011;7879;48.660;9.116;2023-03-29T14:51:44;0.08;;;0.08;;
15555;SDS011;7879;48.660;9.116;2023-03-29T14:54:19;0.10;;;0.10;;
15555;SDS011;7879;48.660;9.116;2023-03-29T14:56:49;0.10;;;0.10;;
15555;SDS011;7879;48.660;9.116;2023-03-29T14:59:27;0.00;;;0.00;;
15555;SDS011;7879;48.660;9.116;2023-03-29T15:02:02;0.10;;;0.10;;
15555;SDS011;7879;48.660;9.116;2023-03-29T15:04:35;0.10;;;0.10;;
15555;SDS011;7879;48.660;9.116;2023-03-29T15:07:02;0.00;;;0.00;;
15555;SDS011;7879;48.660;9.116;2023-03-29T15:09:31;0.10;;;0.10;;
15555;SDS011;7879;48.660;9.116;2023-03-29T15:12:00;0.10;;;0.10;;
15555;SDS011;7879;48.660;9.116;2023-03-29T15:14:29;0.10;;;0.10;;
15555;SDS011;7879;48.660;9.116;2023-03-29T15:17:03;0.10;;;0.10;;
15555;SDS011;7879;48.660;9.116;2023-03-29T15:19:32;0.10;;;0.10;;
15555;SDS011;7879;48.660;9.116;2023-03-29T15:22:01;0.10;;;0.10;;
15555;SDS011;7879;48.660;9.116;2023-03-29T15:24:35;0.10;;;0.10;;
15555;SDS011;7879;48.660;9.116;2023-03-29T15:27:17;0.10;;;0.10;;
15555;SDS011;7879;48.660;9.116;2023-03-29T15:29:45;0.10;;;0.10;;
15555;SDS011;7879;48.660;9.116;2023-03-29T15:32:20;0.08;;;0.08;;
15555;SDS011;7879;48.660;9.116;2023-03-29T15:35:07;0.10;;;0.10;;
15555;SDS011;7879;48.660;9.116;2023-03-29T15:37:46;0.10;;;0.10;;
15555;SDS011;7879;48.660;9.116;2023-03-29T15:40:14;0.10;;;0.10;;
15555;SDS011;7879;48.660;9.116;2023-03-29T15:42:42;0.10;;;0.10;;
15555;SDS011;7879;48.660;9.116;2023-03-29T15:45:12;0.10;;;0.10;;
15555;SDS011;7879;48.660;9.116;2023-03-29T15:47:43;0.10;;;0.10;;
15555;SDS011;7879;48.660;9.116;2023-03-29T15:50:10;0.10;;;0.10;;
15555;SDS011;7879;48.660;9.116;2023-03-29T15:52:37;0.10;;;0.10;;
15555;SDS011;7879;48.660;9.116;2023-03-29T15:55:04;0.10;;;0.10;;
15555;SDS011;7879;48.660;9.116;2023-03-29T15:57:31;0.10;;;0.10;;
15555;SDS011;7879;48.660;9.116;2023-03-29T15:59:58;0.10;;;0.10;;
15555;SDS011;7879;48.660;9.116;2023-03-29T16:02:26;0.10;;;0.10;;
15555;SDS011;7879;48.660;9.116;2023-03-29T16:04:53;0.10;;;0.10;;
15555;SDS011;7879;48.660;9.116;2023-03-29T16:07:20;0.10;;;0.10;;
15555;SDS011;7879;48.660;9.116;2023-03-29T16:09:46;0.10;;;0.10;;
15555;SDS011;7879;48.660;9.116;2023-03-29T16:12:13;0.10;;;0.10;;
15555;SDS011;7879;48.660;9.116;2023-03-29T16:14:41;0.10;;;0.10;;
15555;SDS011;7879;48.660;9.116;2023-03-29T16:17:08;0.10;;;0.10;;
15555;SDS011;7879;48.660;9.116;2023-03-29T16:19:35;0.10;;;0.10;;
15555;SDS011;7879;48.660;9.116;2023-03-29T16:22:02;0.10;;;0.10;;
15555;SDS011;7879;48.660;9.116;2023-03-29T16:24:33;0.10;;;0.10;;
15555;SDS011;7879;48.660;9.116;2023-03-29T16:27:00;0.10;;;0.10;;
15555;SDS011;7879;48.660;9.116;2023-03-29T16:29:27;0.10;;;0.10;;
15555;SDS011;7879;48.660;9.116;2023-03-29T16:31:54;0.10;;;0.10;;
15555;SDS011;7879;48.660;9.116;2023-03-29T16:34:21;0.10;;;0.10;;
15555;SDS011;7879;48.660;9.116;2023-03-29T16:36:49;0.10;;;0.10;;
15555;SDS011;7879;48.660;9.116;2023-03-29T16:39:16;0.10;;;0.10;;
15555;SDS011;7879;48.660;9.116;2023-03-29T16:41:43;0.10;;;0.10;;
15555;SDS011;7879;48.660;9.116;2023-03-29T16:44:17;0.10;;;0.10;;
15555;SDS011;7879;48.660;9.116;2023-03-29T16:46:49;0.10;;;0.10;;
15555;SDS011;7879;48.660;9.116;2023-03-29T16:49:19;0.10;;;0.10;;
15555;SDS011;7879;48.660;9.116;2023-03-29T16:51:46;0.10;;;0.10;;
15555;SDS011;7879;48.660;9.116;2023-03-29T16:54:13;0.10;;;0.10;;
15555;SDS011;7879;48.660;9.116;2023-03-29T16:56:42;0.10;;;0.10;;
15555;SDS011;7879;48.660;9.116;2023-03-29T16:59:09;0.10;;;0.10;;
15555;SDS011;7879;48.660;9.116;2023-03-29T17:01:37;0.10;;;0.10;;
15555;SDS011;7879;48.660;9.116;2023-03-29T17:04:06;0.10;;;0.10;;
15555;SDS011;7879;48.660;9.116;2023-03-29T17:06:33;0.10;;;0.10;;
15555;SDS011;7879;48.660;9.116;2023-03-29T17:09:01;0.10;;;0.10;;
15555;SDS011;7879;48.660;9.116;2023-03-29T17:11:28;0.10;;;0.10;;
15555;SDS011;7879;48.660;9.116;2023-03-29T17:13:55;0.10;;;0.10;;
15555;SDS011;7879;48.660;9.116;2023-03-29T17:16:22;0.10;;;0.10;;
15555;SDS011;7879;48.660;9.116;2023-03-29T17:18:49;0.10;;;0.10;;
15555;SDS011;7879;48.660;9.116;2023-03-29T17:21:16;0.10;;;0.10;;